createdAt,value
2023-10-26T00:01:52.390Z,96.60
2023-10-26T00:04:19.208Z,96.70
2023-10-26T00:06:45.984Z,96.70
2023-10-26T00:09:12.904Z,96.50
2023-10-26T00:11:39.703Z,96.30
2023-10-26T00:14:06.834Z,96.20
2023-10-26T00:16:33.710Z,96.30
2023-10-26T00:19:01.120Z,96.20
2023-10-26T00:21:27.882Z,96.00
2023-10-26T00:23:54.664Z,96.00
2023-10-26T00:26:21.640Z,96.00
2023-10-26T00:28:48.392Z,95.90
2023-10-26T00:31:15.124Z,95.80
2023-10-26T00:33:42.007Z,95.90
2023-10-26T00:36:09.350Z,95.90
2023-10-26T00:38:36.234Z,96.00
2023-10-26T00:41:03.225Z,96.10
2023-10-26T00:43:30.196Z,96.20
2023-10-26T00:45:57.007Z,96.30
2023-10-26T00:48:24.583Z,96.40
2023-10-26T00:50:51.650Z,96.20
2023-10-26T00:53:21.167Z,96.30
2023-10-26T00:55:53.294Z,96.30
2023-10-26T00:58:22.629Z,96.20
2023-10-26T01:00:49.590Z,96.30
2023-10-26T01:03:16.615Z,96.20
2023-10-26T01:05:43.488Z,96.20
2023-10-26T01:08:10.578Z,96.30
2023-10-26T01:10:37.862Z,96.20
2023-10-26T01:13:05.756Z,96.40
2023-10-26T01:15:32.617Z,96.30
2023-10-26T01:17:59.484Z,96.20
2023-10-26T01:20:26.363Z,96.20
2023-10-26T01:22:53.078Z,96.30
2023-10-26T01:25:20.066Z,96.30
2023-10-26T01:27:46.837Z,96.30
2023-10-26T01:30:14.144Z,96.30
2023-10-26T01:32:41.138Z,96.30
2023-10-26T01:35:09.645Z,96.20
2023-10-26T01:37:38.887Z,96.10
2023-10-26T01:40:07.989Z,96.20
2023-10-26T01:42:34.739Z,96.30
2023-10-26T01:45:01.554Z,96.20
2023-10-26T01:47:28.351Z,96.20
2023-10-26T01:49:55.356Z,96.30
2023-10-26T01:52:22.091Z,96.10
2023-10-26T01:54:50.586Z,96.10
2023-10-26T01:57:18.799Z,95.90
2023-10-26T01:59:45.570Z,95.50
2023-10-26T02:02:12.335Z,95.10
2023-10-26T02:04:39.067Z,95.00
2023-10-26T02:07:05.833Z,95.00
2023-10-26T02:09:32.641Z,94.90
2023-10-26T02:12:00.229Z,95.20
2023-10-26T02:14:27.063Z,95.40
2023-10-26T02:16:54.038Z,95.70
2023-10-26T02:19:20.885Z,96.20
2023-10-26T02:21:47.659Z,96.20
2023-10-26T02:24:14.644Z,96.30
2023-10-26T02:26:41.597Z,96.30
2023-10-26T02:29:08.535Z,96.30
2023-10-26T02:31:35.286Z,96.30
2023-10-26T02:34:02.084Z,96.20
2023-10-26T02:36:28.946Z,96.20
2023-10-26T02:38:55.805Z,96.20
2023-10-26T02:41:22.628Z,96.30
2023-10-26T02:43:49.344Z,96.00
2023-10-26T02:46:16.029Z,96.10
2023-10-26T02:48:42.849Z,96.00
2023-10-26T02:51:09.592Z,96.00
2023-10-26T02:53:36.386Z,96.10
2023-10-26T02:56:03.331Z,96.10
2023-10-26T02:58:30.164Z,96.00
2023-10-26T03:00:56.988Z,96.10
2023-10-26T03:03:24.303Z,96.10
2023-10-26T03:05:51.227Z,96.00
2023-10-26T03:08:18.209Z,95.90
2023-10-26T03:10:45.172Z,95.90
2023-10-26T03:13:12.789Z,95.90
2023-10-26T03:15:39.621Z,95.90
2023-10-26T03:18:07.955Z,96.00
2023-10-26T03:20:35.244Z,95.90
2023-10-26T03:23:02.069Z,96.00
2023-10-26T03:25:28.873Z,96.00
2023-10-26T03:27:55.652Z,96.00
2023-10-26T03:30:22.502Z,95.70
2023-10-26T03:32:49.338Z,95.60
2023-10-26T03:35:16.204Z,95.40
2023-10-26T03:37:42.958Z,95.10
2023-10-26T03:40:11.677Z,95.30
2023-10-26T03:42:38.545Z,95.30
2023-10-26T03:45:05.764Z,95.00
2023-10-26T03:47:32.704Z,95.10
2023-10-26T03:49:59.577Z,95.50
2023-10-26T03:52:26.486Z,95.50
2023-10-26T03:54:53.324Z,95.50
2023-10-26T03:57:20.211Z,95.60
2023-10-26T03:59:46.947Z,95.60
2023-10-26T04:02:13.921Z,95.60
2023-10-26T04:04:41.785Z,95.70
2023-10-26T04:07:09.229Z,95.70
2023-10-26T04:09:36.129Z,95.70
2023-10-26T04:12:03.082Z,95.70
2023-10-26T04:14:29.860Z,95.60
2023-10-26T04:16:56.572Z,95.60
2023-10-26T04:19:23.356Z,95.70
2023-10-26T04:21:50.152Z,95.70
2023-10-26T04:24:17.082Z,95.70
2023-10-26T04:26:44.222Z,95.70
2023-10-26T04:29:11.713Z,95.70
2023-10-26T04:31:38.598Z,95.60
2023-10-26T04:34:05.490Z,95.70
2023-10-26T04:36:32.392Z,95.60
2023-10-26T04:38:59.171Z,95.60
2023-10-26T04:41:27.069Z,95.60
2023-10-26T04:43:53.890Z,95.60
2023-10-26T04:46:20.671Z,95.50
2023-10-26T04:48:47.559Z,95.70
2023-10-26T04:51:14.674Z,95.40
2023-10-26T04:53:41.538Z,95.20
2023-10-26T04:56:11.531Z,95.10
2023-10-26T04:58:39.312Z,95.00
2023-10-26T05:01:06.816Z,94.90
2023-10-26T05:03:33.640Z,95.00
2023-10-26T05:06:00.564Z,95.10
2023-10-26T05:08:27.391Z,95.40
2023-10-26T05:10:54.325Z,95.50
2023-10-26T05:13:21.146Z,95.50
2023-10-26T05:15:48.029Z,95.60
2023-10-26T05:18:14.868Z,95.50
2023-10-26T05:20:41.591Z,95.60
2023-10-26T05:23:09.590Z,95.60
2023-10-26T05:25:37.500Z,95.70
2023-10-26T05:28:04.687Z,95.60
2023-10-26T05:30:31.541Z,95.60
2023-10-26T05:32:58.463Z,95.50
2023-10-26T05:35:25.358Z,95.60
2023-10-26T05:37:52.696Z,95.50
2023-10-26T05:40:19.646Z,95.50
2023-10-26T05:42:46.422Z,95.50
2023-10-26T05:45:13.279Z,95.50
2023-10-26T05:47:40.314Z,95.50
2023-10-26T05:50:07.915Z,95.50
2023-10-26T05:52:34.654Z,95.50
2023-10-26T05:55:01.414Z,95.50
2023-10-26T05:57:28.826Z,95.60
2023-10-26T05:59:55.857Z,95.50
2023-10-26T06:02:22.679Z,95.50
2023-10-26T06:04:50.831Z,95.20
2023-10-26T06:07:17.592Z,95.00
2023-10-26T06:09:44.339Z,94.90
2023-10-26T06:12:11.076Z,94.90
2023-10-26T06:14:38.538Z,94.90
2023-10-26T06:17:05.440Z,94.80
2023-10-26T06:19:33.099Z,94.80
2023-10-26T06:21:59.890Z,94.80
2023-10-26T06:24:27.620Z,95.00
2023-10-26T06:26:54.385Z,95.10
2023-10-26T06:29:21.095Z,95.20
2023-10-26T06:31:47.899Z,95.30
2023-10-26T06:34:14.675Z,95.40
2023-10-26T06:36:41.921Z,95.40
2023-10-26T06:39:08.860Z,95.30
2023-10-26T06:41:35.612Z,95.30
2023-10-26T06:44:02.420Z,95.30
2023-10-26T06:46:29.226Z,95.30
2023-10-26T06:48:56.057Z,95.30
2023-10-26T06:51:23.667Z,95.40
2023-10-26T06:53:50.530Z,95.60
2023-10-26T06:56:17.373Z,95.40
2023-10-26T06:58:44.627Z,95.50
2023-10-26T07:01:19.699Z,95.70
2023-10-26T07:03:49.804Z,95.90
2023-10-26T07:06:16.810Z,95.90
2023-10-26T07:08:43.609Z,95.90
2023-10-26T07:11:10.404Z,96.00
2023-10-26T07:13:37.169Z,95.90
2023-10-26T07:16:04.542Z,95.90
2023-10-26T07:18:31.449Z,95.60
2023-10-26T07:20:58.658Z,95.50
2023-10-26T07:23:27.047Z,95.30
2023-10-26T07:25:53.932Z,95.10
2023-10-26T07:28:20.714Z,95.20
2023-10-26T07:30:52.063Z,95.10
2023-10-26T07:33:22.172Z,95.00
2023-10-26T07:35:57.399Z,95.30
2023-10-26T07:38:36.717Z,95.70
2023-10-26T07:41:06.322Z,95.60
2023-10-26T07:43:33.813Z,95.80
2023-10-26T07:46:00.690Z,95.90
2023-10-26T07:48:27.551Z,95.90
2023-10-26T07:50:54.441Z,95.90
2023-10-26T07:53:21.202Z,96.00
2023-10-26T07:55:47.900Z,96.10
2023-10-26T07:58:14.753Z,96.20
2023-10-26T08:00:41.533Z,96.30
2023-10-26T08:03:08.345Z,96.30
2023-10-26T08:05:36.014Z,96.30
2023-10-26T08:08:04.078Z,96.30
2023-10-26T08:10:36.465Z,95.90
2023-10-26T08:13:04.461Z,95.90
2023-10-26T08:16:11.494Z,95.40
2023-10-26T08:18:17.946Z,95.50
2023-10-26T08:20:51.108Z,95.70
2023-10-26T08:23:17.928Z,96.00
2023-10-26T08:25:44.738Z,96.00
2023-10-26T08:28:11.610Z,96.10
2023-10-26T08:30:38.520Z,96.00
2023-10-26T08:33:05.594Z,96.10
2023-10-26T08:35:32.609Z,96.10
2023-10-26T08:37:59.441Z,96.20
2023-10-26T08:40:26.445Z,95.90
2023-10-26T08:42:53.258Z,95.90
2023-10-26T08:45:25.841Z,96.00
2023-10-26T08:47:52.794Z,96.00
2023-10-26T08:50:24.766Z,96.00
2023-10-26T08:52:52.513Z,96.00
2023-10-26T08:55:19.467Z,96.00
2023-10-26T08:57:48.141Z,96.20
2023-10-26T09:00:15.455Z,96.00
2023-10-26T09:02:42.771Z,96.00
2023-10-26T09:05:12.008Z,95.90
2023-10-26T09:07:39.512Z,95.70
2023-10-26T09:10:06.762Z,95.90
2023-10-26T09:12:33.728Z,95.40
2023-10-26T09:15:08.073Z,95.50
2023-10-26T09:17:35.654Z,95.40
2023-10-26T09:20:22.428Z,95.40
2023-10-26T09:22:49.600Z,95.10
2023-10-26T09:25:16.876Z,95.10
2023-10-26T09:27:45.546Z,95.00
2023-10-26T09:30:27.057Z,95.30
2023-10-26T09:32:54.114Z,95.40
2023-10-26T09:35:32.708Z,95.50
2023-10-26T09:38:01.411Z,95.40
2023-10-26T09:40:29.127Z,95.50
2023-10-26T09:42:59.619Z,95.60
2023-10-26T09:45:27.420Z,95.60
2023-10-26T09:47:54.716Z,95.50
2023-10-26T09:50:22.469Z,95.60
2023-10-26T09:52:49.648Z,95.50
2023-10-26T09:55:17.600Z,95.70
2023-10-26T09:58:00.615Z,95.70
2023-10-26T10:00:35.252Z,95.50
2023-10-26T10:03:13.477Z,95.50
2023-10-26T10:05:43.783Z,95.60
2023-10-26T10:08:11.265Z,95.60
2023-10-26T10:10:58.582Z,95.50
2023-10-26T10:13:38.462Z,95.40
2023-10-26T10:16:05.313Z,95.50
2023-10-26T10:18:32.171Z,96.00
2023-10-26T10:20:59.368Z,95.10
2023-10-26T10:23:30.436Z,95.50
2023-10-26T10:26:05.708Z,95.80
2023-10-26T10:28:42.469Z,95.90
2023-10-26T10:31:10.744Z,96.10
2023-10-26T10:33:41.277Z,96.40
2023-10-26T10:36:09.676Z,96.10
2023-10-26T10:38:36.807Z,96.40
2023-10-26T10:41:03.529Z,96.40
2023-10-26T10:43:31.687Z,96.60
2023-10-26T10:46:13.751Z,96.10
2023-10-26T10:49:01.564Z,96.30
2023-10-26T10:51:39.414Z,96.50
2023-10-26T10:54:24.036Z,96.60
2023-10-26T10:56:54.959Z,96.70
2023-10-26T10:59:27.248Z,96.60
2023-10-26T11:02:10.585Z,96.60
2023-10-26T11:04:59.471Z,96.40
2023-10-26T11:07:31.444Z,96.30
2023-10-26T11:10:04.079Z,96.30
2023-10-26T11:12:30.952Z,96.10
2023-10-26T11:14:57.987Z,96.00
2023-10-26T11:17:26.011Z,96.00
2023-10-26T11:19:54.534Z,96.20
2023-10-26T11:22:22.901Z,95.50
2023-10-26T11:24:49.999Z,95.20
2023-10-26T11:27:18.524Z,95.00
2023-10-26T11:29:46.707Z,94.90
2023-10-26T11:32:20.703Z,95.00
2023-10-26T11:35:24.470Z,95.00
2023-10-26T11:37:56.489Z,95.10
2023-10-26T11:40:33.059Z,95.00
2023-10-26T11:43:01.636Z,95.10
2023-10-26T11:45:28.984Z,95.30
2023-10-26T11:48:00.590Z,95.20
2023-10-26T11:50:28.666Z,95.10
2023-10-26T11:52:57.585Z,95.00
2023-10-26T11:55:26.327Z,95.20
2023-10-26T11:57:56.403Z,95.00
2023-10-26T12:00:23.489Z,95.10
2023-10-26T12:02:51.296Z,95.10
2023-10-26T12:05:19.606Z,95.40
2023-10-26T12:07:48.105Z,95.10
2023-10-26T12:10:17.830Z,95.10
2023-10-26T12:12:45.767Z,95.30
2023-10-26T12:15:12.770Z,95.10
2023-10-26T12:17:39.601Z,95.60
2023-10-26T12:20:07.472Z,95.40
2023-10-26T12:22:34.321Z,95.30
2023-10-26T12:25:05.470Z,95.30
2023-10-26T12:27:32.660Z,95.20
2023-10-26T12:30:19.362Z,95.10
2023-10-26T12:32:46.509Z,95.10
2023-10-26T12:35:13.388Z,95.30
2023-10-26T12:37:40.215Z,95.50
2023-10-26T12:40:09.502Z,95.20
2023-10-26T12:42:37.178Z,95.30
2023-10-26T12:45:04.490Z,95.00
2023-10-26T12:47:31.315Z,95.00
2023-10-26T12:49:58.099Z,95.00
2023-10-26T12:52:24.950Z,95.10
2023-10-26T12:54:51.741Z,95.30
2023-10-26T12:57:18.504Z,95.40
2023-10-26T12:59:45.248Z,95.30
2023-10-26T13:02:12.060Z,95.40
2023-10-26T13:04:39.030Z,95.80
2023-10-26T13:07:05.771Z,95.90
2023-10-26T13:09:32.595Z,96.00
2023-10-26T13:11:59.341Z,95.90
2023-10-26T13:14:26.116Z,96.00
2023-10-26T13:16:58.138Z,96.10
2023-10-26T13:19:26.188Z,96.10
2023-10-26T13:21:53.192Z,96.20
2023-10-26T13:24:20.481Z,96.40
2023-10-26T13:26:47.407Z,96.20
2023-10-26T13:29:14.211Z,96.80
2023-10-26T13:31:41.220Z,96.70
2023-10-26T13:34:08.621Z,96.00
2023-10-26T13:36:35.743Z,96.00
2023-10-26T13:39:05.432Z,95.80
2023-10-26T13:41:32.307Z,95.80
2023-10-26T13:44:00.109Z,95.90
2023-10-26T13:46:29.269Z,95.90
2023-10-26T13:48:56.586Z,95.90
2023-10-26T13:51:23.596Z,96.00
2023-10-26T13:53:50.504Z,95.90
2023-10-26T13:56:17.279Z,96.00
2023-10-26T13:58:44.125Z,96.20
2023-10-26T14:01:15.207Z,96.30
2023-10-26T14:03:42.745Z,96.10
2023-10-26T14:06:11.573Z,96.10
2023-10-26T14:08:38.819Z,96.00
2023-10-26T14:11:06.334Z,96.10
2023-10-26T14:13:33.657Z,96.00
2023-10-26T14:16:00.563Z,96.00
2023-10-26T14:18:27.515Z,96.40
2023-10-26T14:20:54.429Z,96.10
2023-10-26T14:23:21.254Z,96.40
2023-10-26T14:25:48.149Z,96.30
2023-10-26T14:28:15.225Z,96.30
2023-10-26T14:30:42.467Z,96.20
2023-10-26T14:33:09.421Z,96.20
2023-10-26T14:35:36.186Z,96.20
2023-10-26T14:38:03.429Z,96.30
2023-10-26T14:40:30.486Z,96.20
2023-10-26T14:42:57.795Z,96.30
2023-10-26T14:45:26.588Z,96.30
2023-10-26T14:47:54.047Z,96.60
2023-10-26T14:50:21.016Z,97.30
2023-10-26T14:52:47.793Z,97.30
2023-10-26T14:55:14.744Z,96.80
2023-10-26T14:57:41.549Z,96.70
2023-10-26T15:00:09.309Z,96.60
2023-10-26T15:02:36.070Z,96.70
2023-10-26T15:05:04.708Z,96.80
2023-10-26T15:07:31.691Z,96.60
2023-10-26T15:10:23.000Z,96.60
2023-10-26T15:12:45.281Z,97.00
2023-10-26T15:15:12.057Z,97.70
2023-10-26T15:17:38.903Z,97.70
2023-10-26T15:20:06.394Z,97.60
2023-10-26T15:22:33.136Z,97.50
2023-10-26T15:24:59.965Z,97.60
2023-10-26T15:27:26.754Z,97.50
2023-10-26T15:29:53.546Z,97.30
2023-10-26T15:32:20.424Z,97.30
2023-10-26T15:34:47.799Z,96.70
2023-10-26T15:37:15.594Z,96.30
2023-10-26T15:39:42.913Z,96.30
2023-10-26T15:42:10.314Z,97.00
2023-10-26T15:44:37.608Z,97.20
2023-10-26T15:47:05.397Z,97.10
2023-10-26T15:49:36.139Z,96.90
2023-10-26T15:52:04.214Z,96.90
2023-10-26T15:54:31.479Z,96.80
2023-10-26T15:56:59.203Z,96.80
2023-10-26T15:59:26.187Z,96.70
2023-10-26T16:01:53.773Z,96.90
2023-10-26T16:04:20.576Z,97.10
2023-10-26T16:06:47.994Z,97.20
2023-10-26T16:09:15.196Z,97.30
2023-10-26T16:11:42.074Z,96.90
2023-10-26T16:14:09.312Z,96.70
2023-10-26T16:16:36.217Z,96.70
2023-10-26T16:19:04.616Z,96.60
2023-10-26T16:21:32.067Z,96.50
2023-10-26T16:23:58.902Z,96.60
2023-10-26T16:26:25.765Z,96.70
2023-10-26T16:28:52.674Z,96.60
2023-10-26T16:31:20.050Z,96.70
2023-10-26T16:33:47.086Z,96.90
2023-10-26T16:36:13.834Z,96.80
2023-10-26T16:38:40.776Z,96.70
2023-10-26T16:41:07.558Z,96.70
2023-10-26T16:43:34.273Z,97.00
2023-10-26T16:46:01.325Z,96.90
2023-10-26T16:48:28.364Z,96.90
2023-10-26T16:50:56.434Z,96.70
2023-10-26T16:53:31.761Z,97.00
2023-10-26T16:56:01.254Z,96.90
2023-10-26T16:58:28.598Z,97.00
2023-10-26T17:00:58.465Z,97.10
2023-10-26T17:03:26.285Z,97.20
2023-10-26T17:05:53.059Z,97.20
2023-10-26T17:08:20.758Z,97.40
2023-10-26T17:10:51.775Z,97.20
2023-10-26T17:13:18.767Z,97.20
2023-10-26T17:15:45.953Z,97.30
2023-10-26T17:18:12.994Z,97.30
2023-10-26T17:20:39.765Z,97.30
2023-10-26T17:23:06.461Z,97.20
2023-10-26T17:25:36.435Z,97.30
2023-10-26T17:28:03.561Z,97.20
2023-10-26T17:30:30.832Z,97.30
2023-10-26T17:32:58.148Z,97.30
2023-10-26T17:35:25.132Z,97.30
2023-10-26T17:37:54.319Z,97.30
2023-10-26T17:40:23.525Z,97.40
2023-10-26T17:42:51.035Z,97.40
2023-10-26T17:45:19.045Z,97.50
2023-10-26T17:47:46.326Z,97.50
2023-10-26T17:50:13.392Z,97.40
2023-10-26T17:52:40.253Z,97.40
2023-10-26T17:55:07.247Z,97.40
2023-10-26T17:57:33.993Z,97.50
2023-10-26T18:00:01.448Z,97.50
2023-10-26T18:02:28.255Z,97.50
2023-10-26T18:04:55.078Z,97.50
2023-10-26T18:07:21.977Z,97.50
2023-10-26T18:09:48.826Z,97.60
2023-10-26T18:12:15.867Z,98.00
2023-10-26T18:14:42.802Z,99.20
2023-10-26T18:17:09.516Z,99.30
2023-10-26T18:19:36.277Z,99.20
2023-10-26T18:22:03.614Z,98.90
2023-10-26T18:24:33.636Z,98.80
2023-10-26T18:27:00.719Z,98.90
2023-10-26T18:29:28.021Z,98.90
2023-10-26T18:31:56.994Z,98.80
2023-10-26T18:34:23.920Z,98.90
2023-10-26T18:36:51.004Z,98.80
2023-10-26T18:39:17.795Z,98.80
2023-10-26T18:41:45.605Z,98.70
2023-10-26T18:44:12.389Z,98.60
2023-10-26T18:46:41.377Z,98.50
2023-10-26T18:49:09.120Z,98.50
2023-10-26T18:51:35.879Z,98.60
2023-10-26T18:54:02.731Z,98.60
2023-10-26T18:56:29.457Z,98.60
2023-10-26T18:58:57.524Z,98.70
2023-10-26T19:01:26.945Z,98.60
2023-10-26T19:04:02.037Z,98.60
2023-10-26T19:06:29.932Z,98.20
2023-10-26T19:08:56.678Z,98.30
2023-10-26T19:11:23.527Z,98.20
2023-10-26T19:13:50.744Z,98.20
2023-10-26T19:16:17.696Z,98.20
2023-10-26T19:18:44.652Z,98.20
2023-10-26T19:21:11.484Z,98.20
2023-10-26T19:23:38.737Z,98.10
2023-10-26T19:26:05.542Z,98.10
2023-10-26T19:28:32.327Z,98.00
2023-10-26T19:30:59.173Z,98.00
2023-10-26T19:33:26.642Z,98.10
2023-10-26T19:35:53.852Z,98.00
2023-10-26T19:38:20.654Z,98.10
2023-10-26T19:40:47.535Z,98.00
2023-10-26T19:43:14.281Z,98.00
2023-10-26T19:45:45.055Z,98.20
2023-10-26T19:48:11.872Z,98.00
2023-10-26T19:50:38.674Z,97.90
2023-10-26T19:53:05.424Z,97.70
2023-10-26T19:55:32.201Z,97.70
2023-10-26T19:57:58.985Z,97.70
2023-10-26T20:00:26.449Z,97.50
2023-10-26T20:02:53.372Z,97.50
2023-10-26T20:05:20.437Z,97.20
2023-10-26T20:07:47.270Z,96.90
2023-10-26T20:10:14.064Z,96.90
2023-10-26T20:12:40.969Z,96.90
2023-10-26T20:15:09.647Z,97.20
2023-10-26T20:17:36.555Z,97.20
2023-10-26T20:20:07.747Z,97.20
2023-10-26T20:22:34.986Z,97.30
2023-10-26T20:25:02.136Z,97.30
2023-10-26T20:27:29.011Z,97.30
2023-10-26T20:29:55.918Z,97.40
2023-10-26T20:32:22.726Z,97.30
2023-10-26T20:34:49.470Z,97.30
2023-10-26T20:37:16.362Z,97.50
2023-10-26T20:39:44.773Z,97.50
2023-10-26T20:42:11.906Z,97.30
2023-10-26T20:44:38.793Z,97.40
2023-10-26T20:47:06.256Z,97.30
2023-10-26T20:49:33.068Z,97.40
2023-10-26T20:51:59.881Z,97.50
2023-10-26T20:54:26.741Z,97.40
2023-10-26T20:56:53.480Z,97.50
2023-10-26T20:59:20.298Z,97.60
2023-10-26T21:01:47.167Z,97.60
2023-10-26T21:04:13.999Z,97.60
2023-10-26T21:06:43.344Z,97.50
2023-10-26T21:09:10.177Z,97.60
2023-10-26T21:11:36.923Z,97.60
2023-10-26T21:14:04.180Z,97.60
2023-10-26T21:16:30.986Z,97.60
2023-10-26T21:18:57.791Z,97.60
2023-10-26T21:21:24.576Z,97.60
2023-10-26T21:23:51.407Z,97.60
2023-10-26T21:26:18.237Z,97.70
2023-10-26T21:28:45.052Z,97.70
2023-10-26T21:31:11.945Z,97.70
2023-10-26T21:33:39.107Z,97.80
2023-10-26T21:36:08.541Z,97.70
2023-10-26T21:38:35.367Z,97.90
2023-10-26T21:41:06.234Z,98.00
2023-10-26T21:43:34.584Z,97.90
2023-10-26T21:46:06.008Z,97.90
2023-10-26T21:48:33.083Z,97.90
2023-10-26T21:51:00.960Z,97.90
2023-10-26T21:53:27.670Z,97.70
2023-10-26T21:55:54.421Z,98.00
2023-10-26T21:58:21.242Z,98.00
2023-10-26T22:00:48.177Z,97.90
2023-10-26T22:03:14.982Z,98.30
2023-10-26T22:05:41.724Z,98.70
2023-10-26T22:08:08.540Z,98.40
2023-10-26T22:10:35.375Z,98.00
2023-10-26T22:13:02.343Z,97.90
2023-10-26T22:15:29.700Z,97.90
2023-10-26T22:17:56.696Z,97.70
2023-10-26T22:20:24.017Z,97.70
2023-10-26T22:22:50.724Z,97.90
2023-10-26T22:25:17.715Z,97.90
2023-10-26T22:27:44.494Z,97.90
2023-10-26T22:30:11.910Z,97.90
2023-10-26T22:32:38.722Z,97.80
2023-10-26T22:35:05.754Z,97.90
2023-10-26T22:37:32.585Z,97.90
2023-10-26T22:40:00.164Z,97.90
2023-10-26T22:42:27.050Z,97.90
2023-10-26T22:44:53.775Z,97.90
2023-10-26T22:47:20.646Z,97.90
2023-10-26T22:49:47.590Z,98.00
2023-10-26T22:52:14.838Z,98.00
2023-10-26T22:54:41.673Z,98.00
2023-10-26T22:57:08.538Z,98.00
2023-10-26T22:59:35.260Z,98.00
2023-10-26T23:02:02.199Z,98.00
2023-10-26T23:04:28.991Z,97.90
2023-10-26T23:06:56.423Z,98.00
2023-10-26T23:09:23.310Z,98.00
2023-10-26T23:11:50.043Z,98.00
2023-10-26T23:14:16.763Z,98.00
2023-10-26T23:16:49.063Z,98.00
2023-10-26T23:19:19.272Z,98.00
2023-10-26T23:21:46.196Z,98.00
2023-10-26T23:24:13.133Z,98.00
2023-10-26T23:26:41.805Z,97.70
2023-10-26T23:29:08.643Z,97.90
2023-10-26T23:31:35.464Z,97.80
2023-10-26T23:34:02.280Z,97.90
2023-10-26T23:36:29.046Z,97.90
2023-10-26T23:38:56.413Z,97.90
2023-10-26T23:41:23.150Z,97.90
2023-10-26T23:43:49.877Z,97.80
2023-10-26T23:46:16.750Z,97.80
2023-10-26T23:48:43.618Z,97.90
2023-10-26T23:51:10.323Z,97.90
2023-10-26T23:53:37.138Z,97.90
2023-10-26T23:56:04.334Z,98.00
2023-10-26T23:58:31.265Z,97.90
